createdAt,value
2019-04-01T00:00:15.067Z,40.34
2019-04-01T00:02:41.232Z,40.79
2019-04-01T00:05:07.425Z,40.14
2019-04-01T00:07:33.580Z,40.14
2019-04-01T00:09:59.745Z,40.06
2019-04-01T00:12:25.989Z,40.89
2019-04-01T00:14:52.286Z,40.67
2019-04-01T00:17:18.448Z,40.97
2019-04-01T00:19:44.651Z,40.73
2019-04-01T00:22:10.712Z,40.26
2019-04-01T00:24:36.873Z,39.84
2019-04-01T00:27:03.176Z,39.39
2019-04-01T00:29:29.339Z,40.51
2019-04-01T00:31:55.502Z,40.16
2019-04-01T00:34:21.700Z,39.92
2019-04-01T00:36:47.858Z,40.05
2019-04-01T00:39:14.380Z,40.29
2019-04-01T00:41:51.163Z,40.43
2019-04-01T00:44:17.320Z,40.28
2019-04-01T00:46:43.487Z,39.78
2019-04-01T00:49:09.667Z,39.43
2019-04-01T00:51:35.827Z,39.72
2019-04-01T00:54:01.994Z,39.71
2019-04-01T00:56:28.180Z,39.36
2019-04-01T00:58:54.347Z,39.58
2019-04-01T01:01:20.502Z,39.79
2019-04-01T01:03:46.908Z,42.26
2019-04-01T01:06:13.072Z,40.47
2019-04-01T01:08:39.230Z,39.87
2019-04-01T01:11:05.424Z,39.63
2019-04-01T01:13:31.581Z,39.90
2019-04-01T01:15:57.743Z,39.78
2019-04-01T01:18:23.934Z,39.52
2019-04-01T01:20:50.100Z,39.43
2019-04-01T01:23:16.261Z,39.42
2019-04-01T01:25:42.545Z,39.42
2019-04-01T01:28:08.708Z,39.68
2019-04-01T01:30:34.987Z,39.74
2019-04-01T01:33:01.182Z,39.75
2019-04-01T01:35:27.340Z,39.59
2019-04-01T01:37:53.496Z,39.41
2019-04-01T01:40:19.700Z,39.55
2019-04-01T01:42:45.862Z,39.75
2019-04-01T01:45:12.021Z,39.84
2019-04-01T01:47:38.203Z,40.48
2019-04-01T01:50:05.876Z,40.46
2019-04-01T01:52:32.042Z,40.73
2019-04-01T01:54:58.232Z,41.38
2019-04-01T01:57:24.397Z,40.51
2019-04-01T01:59:50.554Z,41.04
2019-04-01T02:02:16.745Z,41.10
2019-04-01T02:04:42.962Z,41.86
2019-04-01T02:07:09.119Z,42.01
2019-04-01T02:09:35.463Z,42.49
2019-04-01T02:12:01.654Z,41.58
2019-04-01T02:14:27.819Z,41.29
2019-04-01T02:16:54.010Z,41.46
2019-04-01T02:19:20.275Z,41.24
2019-04-01T02:21:46.526Z,41.48
2019-04-01T02:24:12.715Z,41.24
2019-04-01T02:26:38.869Z,41.33
2019-04-01T02:29:05.131Z,41.83
2019-04-01T02:31:31.333Z,42.51
2019-04-01T02:33:57.493Z,43.17
2019-04-01T02:36:23.641Z,42.68
2019-04-01T02:38:49.826Z,42.63
2019-04-01T02:41:15.979Z,43.14
2019-04-01T02:43:42.149Z,43.13
2019-04-01T02:46:08.541Z,43.53
2019-04-01T02:48:34.694Z,42.33
2019-04-01T02:51:00.853Z,41.96
2019-04-01T02:53:27.055Z,41.80
2019-04-01T02:55:53.210Z,41.80
2019-04-01T02:58:19.427Z,42.32
2019-04-01T03:00:45.654Z,42.41
2019-04-01T03:03:11.803Z,42.42
2019-04-01T03:05:37.961Z,43.53
2019-04-01T03:08:04.157Z,42.53
2019-04-01T03:10:30.321Z,42.52
2019-04-01T03:12:56.612Z,42.72
2019-04-01T03:15:22.898Z,43.23
2019-04-01T03:17:49.087Z,42.64
2019-04-01T03:20:15.312Z,43.15
2019-04-01T03:22:41.510Z,43.55
2019-04-01T03:25:07.770Z,43.10
2019-04-01T03:27:33.925Z,42.91
2019-04-01T03:30:00.582Z,42.46
2019-04-01T03:32:27.007Z,41.98
2019-04-01T03:34:53.177Z,41.69
2019-04-01T03:37:19.368Z,41.88
2019-04-01T03:39:45.996Z,42.17
2019-04-01T03:42:12.267Z,42.08
2019-04-01T03:44:38.445Z,41.76
2019-04-01T03:47:04.608Z,42.04
2019-04-01T03:49:30.853Z,41.95
2019-04-01T03:51:57.036Z,42.86
2019-04-01T03:54:23.216Z,42.80
2019-04-01T03:56:49.367Z,43.06
2019-04-01T03:59:15.552Z,43.07
2019-04-01T04:01:42.018Z,43.60
2019-04-01T04:04:08.202Z,43.45
2019-04-01T04:06:34.485Z,43.23
2019-04-01T04:09:02.162Z,42.92
2019-04-01T04:11:28.800Z,42.98
2019-04-01T04:13:54.974Z,42.61
2019-04-01T04:16:21.129Z,42.32
2019-04-01T04:18:47.287Z,42.30
2019-04-01T04:21:13.479Z,42.06
2019-04-01T04:23:39.733Z,41.79
2019-04-01T04:26:05.990Z,41.14
2019-04-01T04:28:32.175Z,41.02
2019-04-01T04:30:58.559Z,38.43
2019-04-01T04:33:24.716Z,35.81
2019-04-01T04:35:50.899Z,33.78
2019-04-01T04:38:17.158Z,32.08
2019-04-01T04:40:43.325Z,30.69
2019-04-01T04:43:09.609Z,29.42
2019-04-01T04:45:35.764Z,28.82
2019-04-01T04:48:01.926Z,27.82
2019-04-01T04:50:28.216Z,26.85
2019-04-01T04:52:54.378Z,25.32
2019-04-01T04:55:20.534Z,23.93
2019-04-01T04:57:46.826Z,23.42
2019-04-01T05:00:13.081Z,22.95
2019-04-01T05:02:39.244Z,22.43
2019-04-01T05:05:06.330Z,22.05
2019-04-01T05:07:32.627Z,21.73
2019-04-01T05:09:58.783Z,21.60
2019-04-01T05:12:25.779Z,22.80
2019-04-01T05:14:51.925Z,22.23
2019-04-01T05:17:18.082Z,21.69
2019-04-01T05:19:44.380Z,21.03
2019-04-01T05:22:11.232Z,20.69
2019-04-01T05:24:37.594Z,20.45
2019-04-01T05:27:03.786Z,19.74
2019-04-01T05:29:29.943Z,20.17
2019-04-01T05:31:58.209Z,19.57
2019-04-01T05:34:27.798Z,19.61
2019-04-01T05:36:53.945Z,18.93
2019-04-01T05:39:20.509Z,19.23
2019-04-01T05:41:46.697Z,18.97
2019-04-01T05:44:12.952Z,20.43
2019-04-01T05:46:39.215Z,21.42
2019-04-01T05:49:05.501Z,22.15
2019-04-01T05:51:31.671Z,21.74
2019-04-01T05:53:57.825Z,22.99
2019-04-01T05:56:24.216Z,22.79
2019-04-01T05:58:50.367Z,24.23
2019-04-01T06:01:18.432Z,23.93
2019-04-01T06:03:44.634Z,22.98
2019-04-01T06:06:10.791Z,22.58
2019-04-01T06:08:37.563Z,23.01
2019-04-01T06:11:03.766Z,23.00
2019-04-01T06:13:29.926Z,22.27
2019-04-01T06:15:56.180Z,22.69
2019-04-01T06:18:22.390Z,22.32
2019-04-01T06:20:49.148Z,23.47
2019-04-01T06:23:15.302Z,24.52
2019-04-01T06:25:41.518Z,24.96
2019-04-01T06:28:07.689Z,24.58
2019-04-01T06:30:33.930Z,25.21
2019-04-01T06:33:01.023Z,25.30
2019-04-01T06:35:27.180Z,24.15
2019-04-01T06:37:53.431Z,24.30
2019-04-01T06:40:19.850Z,24.64
2019-04-01T06:42:46.106Z,24.12
2019-04-01T06:45:12.468Z,24.11
2019-04-01T06:47:38.653Z,24.23
2019-04-01T06:50:04.815Z,24.11
2019-04-01T06:52:31.275Z,23.88
2019-04-01T06:54:57.458Z,24.57
2019-04-01T06:57:23.612Z,24.22
2019-04-01T06:59:49.767Z,24.30
2019-04-01T07:02:15.957Z,24.68
2019-04-01T07:04:42.124Z,25.07
2019-04-01T07:07:18.821Z,24.85
2019-04-01T07:09:37.612Z,24.45
2019-04-01T07:12:03.814Z,23.91
2019-04-01T07:14:30.099Z,23.80
2019-04-01T07:16:56.304Z,24.00
2019-04-01T07:19:22.468Z,23.42
2019-04-01T07:21:48.676Z,25.15
2019-04-01T07:24:14.877Z,24.78
2019-04-01T07:26:41.179Z,24.47
2019-04-01T07:29:07.369Z,24.29
2019-04-01T07:31:33.677Z,24.71
2019-04-01T07:34:00.245Z,24.93
2019-04-01T07:36:26.415Z,25.46
2019-04-01T07:38:52.658Z,26.79
2019-04-01T07:41:18.840Z,26.59
2019-04-01T07:43:45.024Z,24.97
2019-04-01T07:46:11.454Z,26.14
2019-04-01T07:48:37.944Z,24.97
2019-04-01T07:51:07.084Z,25.88
2019-04-01T07:53:32.168Z,25.01
2019-04-01T07:55:58.358Z,24.67
2019-04-01T07:58:24.731Z,24.30
2019-04-01T08:00:52.782Z,24.38
2019-04-01T08:03:19.072Z,23.54
2019-04-01T08:05:45.211Z,23.27
2019-04-01T08:08:11.404Z,23.22
2019-04-01T08:10:37.612Z,22.29
2019-04-01T08:13:03.891Z,22.17
2019-04-01T08:15:30.098Z,23.28
2019-04-01T08:17:56.381Z,21.66
2019-04-01T08:20:22.577Z,20.53
2019-04-01T08:22:48.860Z,20.42
2019-04-01T08:25:15.023Z,22.03
2019-04-01T08:27:41.176Z,24.72
2019-04-01T08:30:08.100Z,25.92
2019-04-01T08:32:34.854Z,23.07
2019-04-01T08:35:01.836Z,22.79
2019-04-01T08:37:28.460Z,22.52
2019-04-01T08:39:54.628Z,21.52
2019-04-01T08:42:21.199Z,21.93
2019-04-01T08:44:47.504Z,21.55
2019-04-01T08:47:13.677Z,22.13
2019-04-01T08:49:39.843Z,23.76
2019-04-01T08:52:06.071Z,24.57
2019-04-01T08:54:32.430Z,24.77
2019-04-01T08:56:58.758Z,23.61
2019-04-01T08:59:24.980Z,24.17
2019-04-01T09:01:51.159Z,24.40
2019-04-01T09:04:17.345Z,22.78
2019-04-01T09:06:43.561Z,22.43
2019-04-01T09:09:09.728Z,23.99
2019-04-01T09:11:38.414Z,22.10
2019-04-01T09:14:04.016Z,23.52
2019-04-01T09:16:30.410Z,22.23
2019-04-01T09:18:56.579Z,22.10
2019-04-01T09:21:22.787Z,20.13
2019-04-01T09:23:51.973Z,21.07
2019-04-01T09:26:17.135Z,20.67
2019-04-01T09:28:43.359Z,20.15
2019-04-01T09:31:09.544Z,21.19
2019-04-01T09:33:35.747Z,19.71
2019-04-01T09:36:01.977Z,19.16
2019-04-01T09:38:28.151Z,19.90
2019-04-01T09:40:54.669Z,19.63
2019-04-01T09:43:20.982Z,20.24
2019-04-01T09:45:47.159Z,20.26
2019-04-01T09:48:13.479Z,20.91
2019-04-01T09:50:39.766Z,21.61
2019-04-01T09:53:05.927Z,21.16
2019-04-01T09:55:32.116Z,20.70
2019-04-01T09:57:58.410Z,21.44
2019-04-01T10:00:26.397Z,20.45
2019-04-01T10:02:52.552Z,20.74
2019-04-01T10:05:18.780Z,20.65
2019-04-01T10:07:45.167Z,20.15
2019-04-01T10:10:11.498Z,20.03
2019-04-01T10:12:39.710Z,21.93
2019-04-01T10:15:06.722Z,19.49
2019-04-01T10:17:35.637Z,19.88
2019-04-01T10:20:01.855Z,19.52
2019-04-01T10:22:28.052Z,18.11
2019-04-01T10:24:54.234Z,19.12
2019-04-01T10:27:20.452Z,18.95
2019-04-01T10:29:46.600Z,19.09
2019-04-01T10:32:12.772Z,19.17
2019-04-01T10:34:38.976Z,19.03
2019-04-01T10:37:05.164Z,19.43
2019-04-01T10:39:31.325Z,18.08
2019-04-01T10:41:57.557Z,18.50
2019-04-01T10:44:23.758Z,19.01
2019-04-01T10:46:50.085Z,19.23
2019-04-01T10:49:16.349Z,18.04
2019-04-01T10:51:42.544Z,18.15
2019-04-01T10:54:08.690Z,18.98
2019-04-01T10:56:36.048Z,18.97
2019-04-01T10:59:02.582Z,18.14
2019-04-01T11:01:28.837Z,18.59
2019-04-01T11:03:55.138Z,20.58
2019-04-01T11:06:21.362Z,18.77
2019-04-01T11:08:47.737Z,18.15
2019-04-01T11:11:13.944Z,17.79
2019-04-01T11:13:41.128Z,18.81
2019-04-01T11:16:07.408Z,19.04
2019-04-01T11:18:33.613Z,18.83
2019-04-01T11:20:59.792Z,17.95
2019-04-01T11:23:25.964Z,18.24
2019-04-01T11:25:52.184Z,18.18
2019-04-01T11:28:18.341Z,17.52
2019-04-01T11:30:44.682Z,18.08
2019-04-01T11:33:10.977Z,18.10
2019-04-01T11:35:37.152Z,16.59
2019-04-01T11:38:03.448Z,18.18
2019-04-01T11:40:29.761Z,17.56
2019-04-01T11:42:55.961Z,18.17
2019-04-01T11:45:22.678Z,17.52
2019-04-01T11:47:49.433Z,18.04
2019-04-01T11:50:16.021Z,16.48
2019-04-01T11:52:42.294Z,17.12
2019-04-01T11:55:09.136Z,18.56
2019-04-01T11:57:36.040Z,17.31
2019-04-01T12:00:10.115Z,17.50
2019-04-01T12:02:34.511Z,17.32
2019-04-01T12:05:00.773Z,17.09
2019-04-01T12:07:26.931Z,16.77
2019-04-01T12:09:53.179Z,17.61
2019-04-01T12:12:23.841Z,17.20
2019-04-01T12:14:47.847Z,15.72
2019-04-01T12:17:14.251Z,15.23
2019-04-01T12:19:40.514Z,16.41
2019-04-01T12:22:06.723Z,17.23
2019-04-01T12:24:33.223Z,17.38
2019-04-01T12:26:59.379Z,18.12
2019-04-01T12:29:25.535Z,17.93
2019-04-01T12:31:51.800Z,16.88
2019-04-01T12:34:18.746Z,17.01
2019-04-01T12:36:45.032Z,16.98
2019-04-01T12:39:11.371Z,16.39
2019-04-01T12:41:37.507Z,16.10
2019-04-01T12:44:03.790Z,16.45
2019-04-01T12:46:29.989Z,15.42
2019-04-01T12:48:56.258Z,17.20
2019-04-01T12:51:22.428Z,16.64
2019-04-01T12:53:48.621Z,15.42
2019-04-01T12:56:14.928Z,14.45
2019-04-01T12:58:41.115Z,15.62
2019-04-01T13:01:07.353Z,16.04
2019-04-01T13:03:33.519Z,16.13
2019-04-01T13:05:59.688Z,16.25
2019-04-01T13:08:25.894Z,15.91
2019-04-01T13:10:52.196Z,16.79
2019-04-01T13:13:18.362Z,16.54
2019-04-01T13:15:44.602Z,17.26
2019-04-01T13:18:10.781Z,17.35
2019-04-01T13:20:38.408Z,17.19
2019-04-01T13:23:04.928Z,16.57
2019-04-01T13:25:31.207Z,15.47
2019-04-01T13:27:57.567Z,16.41
2019-04-01T13:30:24.306Z,15.82
2019-04-01T13:32:51.164Z,14.96
2019-04-01T13:35:17.338Z,14.80
2019-04-01T13:37:43.549Z,15.30
2019-04-01T13:40:10.111Z,14.82
2019-04-01T13:42:36.372Z,15.54
2019-04-01T13:45:04.004Z,16.31
2019-04-01T13:47:30.160Z,17.29
2019-04-01T13:49:56.360Z,16.25
2019-04-01T13:52:22.584Z,15.15
2019-04-01T13:54:48.779Z,14.97
2019-04-01T13:57:14.965Z,15.30
2019-04-01T13:59:48.967Z,14.99
2019-04-01T14:02:09.360Z,15.92
2019-04-01T14:04:35.537Z,15.77
2019-04-01T14:07:01.756Z,16.13
2019-04-01T14:09:30.708Z,16.65
2019-04-01T14:11:56.095Z,16.74
2019-04-01T14:14:22.282Z,16.56
2019-04-01T14:16:48.489Z,15.77
2019-04-01T14:19:14.654Z,16.87
2019-04-01T14:21:40.835Z,16.61
2019-04-01T14:24:07.121Z,15.93
2019-04-01T14:26:33.392Z,16.08
2019-04-01T14:28:59.583Z,16.45
2019-04-01T14:31:25.747Z,16.73
2019-04-01T14:33:52.008Z,16.35
2019-04-01T14:36:18.199Z,15.87
2019-04-01T14:38:44.350Z,16.77
2019-04-01T14:41:10.637Z,17.89
2019-04-01T14:43:36.838Z,17.47
2019-04-01T14:46:03.020Z,17.26
2019-04-01T14:48:30.473Z,17.02
2019-04-01T14:50:57.112Z,17.15
2019-04-01T14:53:23.395Z,16.46
2019-04-01T14:55:49.580Z,16.30
2019-04-01T14:58:15.808Z,15.84
2019-04-01T15:00:41.972Z,16.90
2019-04-01T15:03:08.137Z,17.47
2019-04-01T15:05:34.375Z,16.70
2019-04-01T15:08:00.560Z,17.01
2019-04-01T15:10:26.721Z,17.65
2019-04-01T15:13:04.465Z,17.23
2019-04-01T15:15:20.999Z,17.48
2019-04-01T15:17:47.549Z,16.75
2019-04-01T15:20:15.656Z,16.54
2019-04-01T15:22:41.838Z,16.32
2019-04-01T15:25:08.129Z,16.68
2019-04-01T15:27:34.315Z,15.97
2019-04-01T15:30:00.584Z,16.26
2019-04-01T15:32:26.743Z,16.08
2019-04-01T15:34:53.056Z,16.51
2019-04-01T15:37:19.209Z,16.31
2019-04-01T15:39:47.216Z,16.07
2019-04-01T15:42:14.381Z,16.20
2019-04-01T15:44:41.003Z,16.44
2019-04-01T15:47:08.726Z,16.84
2019-04-01T15:49:35.232Z,16.50
2019-04-01T15:52:01.402Z,16.35
2019-04-01T15:54:27.587Z,16.13
2019-04-01T15:56:53.899Z,15.93
2019-04-01T15:59:20.096Z,15.88
2019-04-01T16:01:46.286Z,16.00
2019-04-01T16:04:14.837Z,15.82
2019-04-01T16:06:40.680Z,16.18
2019-04-01T16:09:07.465Z,16.17
2019-04-01T16:11:33.663Z,16.44
2019-04-01T16:13:59.940Z,16.47
2019-04-01T16:16:26.225Z,17.13
2019-04-01T16:18:52.554Z,17.58
2019-04-01T16:21:18.810Z,17.41
2019-04-01T16:23:45.012Z,17.41
2019-04-01T16:26:11.190Z,17.60
2019-04-01T16:28:37.352Z,18.12
2019-04-01T16:31:03.549Z,18.01
2019-04-01T16:33:30.439Z,18.03
2019-04-01T16:35:56.976Z,18.09
2019-04-01T16:38:23.197Z,18.00
2019-04-01T16:40:52.321Z,18.15
2019-04-01T16:43:17.628Z,18.03
2019-04-01T16:45:43.836Z,17.88
2019-04-01T16:48:10.073Z,18.08
2019-04-01T16:50:36.321Z,17.97
2019-04-01T16:53:03.419Z,17.99
2019-04-01T16:55:29.616Z,18.18
2019-04-01T16:57:55.868Z,18.58
2019-04-01T17:00:22.576Z,19.96
2019-04-01T17:02:50.029Z,20.41
2019-04-01T17:05:20.157Z,20.90
2019-04-01T17:07:46.319Z,21.27
2019-04-01T17:10:21.222Z,22.17
2019-04-01T17:12:47.369Z,22.15
2019-04-01T17:15:13.665Z,22.50
2019-04-01T17:17:39.884Z,22.36
2019-04-01T17:20:06.250Z,23.29
2019-04-01T17:22:32.480Z,23.06
2019-04-01T17:24:58.827Z,22.28
2019-04-01T17:27:25.007Z,23.04
2019-04-01T17:29:51.153Z,22.92
2019-04-01T17:32:17.393Z,22.94
2019-04-01T17:34:44.832Z,22.75
2019-04-01T17:37:11.207Z,22.79
2019-04-01T17:39:37.540Z,22.93
2019-04-01T17:42:04.189Z,23.09
2019-04-01T17:44:30.485Z,23.07
2019-04-01T17:46:56.704Z,23.38
2019-04-01T17:49:22.957Z,23.73
2019-04-01T17:51:49.148Z,23.93
2019-04-01T17:54:15.336Z,24.08
2019-04-01T17:56:41.555Z,24.14
2019-04-01T17:59:07.749Z,24.08
2019-04-01T18:01:34.070Z,23.91
2019-04-01T18:04:00.223Z,24.08
2019-04-01T18:06:26.399Z,24.07
2019-04-01T18:08:52.733Z,24.02
2019-04-01T18:11:18.888Z,23.76
2019-04-01T18:13:45.082Z,23.70
2019-04-01T18:16:11.420Z,23.65
2019-04-01T18:18:38.974Z,23.83
2019-04-01T18:21:05.495Z,23.95
2019-04-01T18:23:31.730Z,24.50
2019-04-01T18:25:58.061Z,24.25
2019-04-01T18:28:24.219Z,24.17
2019-04-01T18:30:50.449Z,24.21
2019-04-01T18:33:19.627Z,24.46
2019-04-01T18:35:45.058Z,25.33
2019-04-01T18:38:11.498Z,24.52
2019-04-01T18:40:37.679Z,24.29
2019-04-01T18:43:03.837Z,24.48
2019-04-01T18:45:30.035Z,24.14
2019-04-01T18:47:56.223Z,24.36
2019-04-01T18:50:22.476Z,24.61
2019-04-01T18:52:48.812Z,24.88
2019-04-01T18:55:15.001Z,25.15
2019-04-01T18:57:41.159Z,25.12
2019-04-01T19:00:09.004Z,25.48
2019-04-01T19:02:35.155Z,25.36
2019-04-01T19:05:01.407Z,25.53
2019-04-01T19:07:27.642Z,25.80
2019-04-01T19:10:05.559Z,25.89
2019-04-01T19:12:21.993Z,25.79
2019-04-01T19:14:48.219Z,25.97
2019-04-01T19:17:14.945Z,26.30
2019-04-01T19:19:42.418Z,25.29
2019-04-01T19:22:09.210Z,25.87
2019-04-01T19:24:35.399Z,25.68
2019-04-01T19:27:01.553Z,26.25
2019-04-01T19:29:27.889Z,25.47
2019-04-01T19:31:54.033Z,24.98
2019-04-01T19:34:20.188Z,24.60
2019-04-01T19:36:46.431Z,24.42
2019-04-01T19:39:12.621Z,24.19
2019-04-01T19:41:38.772Z,24.39
2019-04-01T19:44:04.974Z,24.58
2019-04-01T19:46:31.165Z,24.44
2019-04-01T19:48:57.420Z,24.48
2019-04-01T19:51:23.752Z,24.58
2019-04-01T19:53:49.940Z,24.53
2019-04-01T19:56:16.089Z,24.58
2019-04-01T19:58:42.276Z,24.46
2019-04-01T20:01:08.568Z,24.83
2019-04-01T20:03:34.758Z,25.22
2019-04-01T20:06:00.957Z,24.57
2019-04-01T20:08:27.148Z,24.22
2019-04-01T20:10:53.302Z,24.66
2019-04-01T20:13:19.503Z,24.87
2019-04-01T20:15:45.798Z,25.38
2019-04-01T20:18:12.054Z,25.93
2019-04-01T20:20:41.280Z,25.30
2019-04-01T20:23:06.403Z,25.73
2019-04-01T20:25:32.660Z,25.84
2019-04-01T20:27:58.994Z,25.80
2019-04-01T20:30:26.050Z,26.71
2019-04-01T20:32:52.212Z,26.23
2019-04-01T20:35:23.580Z,26.27
2019-04-01T20:37:46.648Z,26.41
2019-04-01T20:40:13.499Z,26.29
2019-04-01T20:42:39.690Z,26.93
2019-04-01T20:45:06.683Z,26.52
2019-04-01T20:47:32.833Z,26.80
2019-04-01T20:49:59.188Z,26.39
2019-04-01T20:52:25.442Z,27.25
2019-04-01T20:54:51.600Z,27.97
2019-04-01T20:57:17.892Z,27.97
2019-04-01T20:59:44.080Z,28.10
2019-04-01T21:02:10.271Z,27.72
2019-04-01T21:04:36.455Z,27.61
2019-04-01T21:07:02.647Z,27.48
2019-04-01T21:09:28.801Z,28.05
2019-04-01T21:11:54.998Z,28.68
2019-04-01T21:14:22.566Z,29.21
2019-04-01T21:16:49.178Z,30.13
2019-04-01T21:19:16.312Z,30.91
2019-04-01T21:21:42.732Z,29.16
2019-04-01T21:24:08.924Z,29.42
2019-04-01T21:26:35.225Z,30.37
2019-04-01T21:29:01.413Z,30.01
2019-04-01T21:31:27.598Z,30.00
2019-04-01T21:33:53.794Z,30.31
2019-04-01T21:36:19.979Z,32.00
2019-04-01T21:38:46.234Z,31.46
2019-04-01T21:41:12.426Z,31.24
2019-04-01T21:43:38.675Z,32.07
2019-04-01T21:46:04.831Z,32.23
2019-04-01T21:48:31.073Z,31.54
2019-04-01T21:50:57.260Z,30.92
2019-04-01T21:53:23.526Z,31.84
2019-04-01T21:55:49.720Z,31.12
2019-04-01T21:58:15.918Z,31.05
2019-04-01T22:00:52.777Z,31.52
2019-04-01T22:03:19.125Z,31.29
2019-04-01T22:05:45.325Z,30.65
2019-04-01T22:08:11.508Z,30.29
2019-04-01T22:10:37.762Z,30.36
2019-04-01T22:13:03.952Z,30.33
2019-04-01T22:15:30.265Z,30.17
2019-04-01T22:17:56.409Z,30.20
2019-04-01T22:20:22.669Z,30.21
2019-04-01T22:22:48.909Z,30.58
2019-04-01T22:25:15.095Z,30.32
2019-04-01T22:27:41.388Z,31.36
2019-04-01T22:30:08.505Z,31.26
2019-04-01T22:32:34.653Z,31.97
2019-04-01T22:35:00.806Z,31.18
2019-04-01T22:37:27.887Z,31.28
2019-04-01T22:39:54.212Z,30.89
2019-04-01T22:42:20.364Z,31.26
2019-04-01T22:44:46.586Z,29.88
2019-04-01T22:47:12.730Z,31.63
2019-04-01T22:49:38.882Z,30.77
2019-04-01T22:52:05.425Z,31.53
2019-04-01T22:54:32.567Z,30.76
2019-04-01T22:56:58.752Z,32.42
2019-04-01T22:59:24.956Z,31.89
2019-04-01T23:01:51.114Z,30.76
2019-04-01T23:04:17.401Z,31.13
2019-04-01T23:06:43.591Z,31.65
2019-04-01T23:09:09.754Z,31.66
2019-04-01T23:11:36.051Z,32.13
2019-04-01T23:14:02.477Z,31.22
2019-04-01T23:16:28.632Z,31.04
2019-04-01T23:18:54.779Z,31.20
2019-04-01T23:21:21.118Z,30.40
2019-04-01T23:23:47.262Z,31.71
2019-04-01T23:26:13.557Z,31.53
2019-04-01T23:28:39.784Z,31.63
2019-04-01T23:31:06.031Z,30.97
2019-04-01T23:33:32.213Z,32.53
2019-04-01T23:35:58.435Z,32.16
2019-04-01T23:38:24.635Z,31.47
2019-04-01T23:40:50.778Z,31.21
2019-04-01T23:43:17.024Z,32.61
2019-04-01T23:45:43.286Z,32.36
2019-04-01T23:48:09.539Z,31.89
2019-04-01T23:50:35.777Z,32.30
2019-04-01T23:53:02.260Z,32.25
2019-04-01T23:55:29.264Z,31.79
2019-04-01T23:57:56.027Z,32.31
